createdAt,value
2023-02-27T00:01:40.679Z,2.05
2023-02-27T00:04:07.167Z,2.17
2023-02-27T00:06:33.621Z,2.33
2023-02-27T00:09:00.279Z,3.35
2023-02-27T00:11:27.094Z,2.75
2023-02-27T00:13:53.698Z,2.42
2023-02-27T00:16:20.143Z,2.33
2023-02-27T00:18:46.635Z,2.72
2023-02-27T00:21:13.000Z,2.83
2023-02-27T00:23:39.374Z,2.70
2023-02-27T00:26:05.758Z,2.70
2023-02-27T00:28:32.166Z,2.65
2023-02-27T00:30:58.662Z,2.60
2023-02-27T00:33:25.156Z,2.50
2023-02-27T00:35:56.074Z,2.67
2023-02-27T00:38:22.592Z,2.63
2023-02-27T00:40:49.005Z,3.03
2023-02-27T00:43:15.409Z,3.00
2023-02-27T00:45:41.744Z,2.50
2023-02-27T00:48:08.132Z,2.38
2023-02-27T00:50:34.512Z,2.50
2023-02-27T00:53:00.885Z,2.58
2023-02-27T00:55:27.533Z,2.23
2023-02-27T00:57:54.007Z,2.75
2023-02-27T01:00:20.543Z,2.17
2023-02-27T01:02:46.944Z,2.30
2023-02-27T01:05:14.450Z,2.55
2023-02-27T01:07:40.972Z,2.40
2023-02-27T01:10:09.177Z,2.90
2023-02-27T01:12:35.666Z,2.60
2023-02-27T01:15:02.378Z,2.80
2023-02-27T01:17:28.765Z,2.28
2023-02-27T01:19:55.172Z,2.33
2023-02-27T01:22:21.553Z,2.40
2023-02-27T01:24:47.988Z,3.22
2023-02-27T01:27:14.334Z,2.53
2023-02-27T01:29:41.075Z,2.53
2023-02-27T01:32:07.716Z,2.47
2023-02-27T01:34:34.437Z,3.13
2023-02-27T01:37:00.860Z,2.70
2023-02-27T01:39:27.649Z,2.70
2023-02-27T01:41:54.011Z,3.10
2023-02-27T01:44:20.391Z,3.00
2023-02-27T01:46:46.838Z,2.63
2023-02-27T01:49:24.030Z,2.63
2023-02-27T01:51:56.608Z,2.63
2023-02-27T01:54:26.066Z,3.20
2023-02-27T01:56:52.524Z,2.83
2023-02-27T01:59:20.129Z,2.60
2023-02-27T02:01:46.652Z,3.37
2023-02-27T02:04:33.769Z,3.08
2023-02-27T02:07:02.849Z,3.00
2023-02-27T02:09:30.400Z,2.83
2023-02-27T02:11:58.810Z,3.00
2023-02-27T02:14:25.307Z,3.30
2023-02-27T02:17:11.653Z,3.13
2023-02-27T02:19:58.675Z,3.30
2023-02-27T02:22:53.464Z,3.13
2023-02-27T02:25:49.020Z,2.97
2023-02-27T02:28:32.827Z,2.90
2023-02-27T02:31:09.317Z,3.70
2023-02-27T02:33:56.629Z,3.10
2023-02-27T02:36:37.254Z,3.40
2023-02-27T02:39:25.357Z,2.80
2023-02-27T02:42:04.592Z,3.07
2023-02-27T02:44:57.829Z,3.50
2023-02-27T02:47:53.279Z,3.17
2023-02-27T02:50:28.867Z,3.25
2023-02-27T02:53:21.666Z,3.15
2023-02-27T02:55:57.888Z,3.90
2023-02-27T02:58:40.394Z,3.20
2023-02-27T03:01:14.798Z,3.23
2023-02-27T03:03:47.707Z,3.38
2023-02-27T03:06:20.398Z,3.40
2023-02-27T03:08:53.879Z,3.90
2023-02-27T03:11:24.252Z,3.77
2023-02-27T03:13:56.608Z,3.17
2023-02-27T03:16:40.966Z,3.50
2023-02-27T03:19:18.854Z,3.63
2023-02-27T03:21:57.503Z,3.30
2023-02-27T03:24:32.475Z,3.20
2023-02-27T03:27:02.907Z,3.85
2023-02-27T03:29:38.679Z,3.77
2023-02-27T03:32:17.657Z,3.80
2023-02-27T03:34:44.849Z,3.50
2023-02-27T03:37:46.089Z,4.00
2023-02-27T03:40:26.220Z,3.67
2023-02-27T03:43:18.382Z,4.00
2023-02-27T03:46:01.700Z,3.40
2023-02-27T03:48:28.887Z,3.73
2023-02-27T03:50:55.843Z,3.53
2023-02-27T03:53:54.382Z,5.30
2023-02-27T03:56:27.259Z,3.60
2023-02-27T03:58:53.874Z,3.43
2023-02-27T04:01:20.855Z,3.37
2023-02-27T04:04:00.497Z,3.70
2023-02-27T04:06:45.417Z,3.47
2023-02-27T04:09:59.567Z,3.65
2023-02-27T04:12:31.679Z,3.70
2023-02-27T04:15:29.927Z,3.60
2023-02-27T04:18:31.932Z,3.30
2023-02-27T04:21:06.436Z,3.47
2023-02-27T04:23:39.456Z,3.53
2023-02-27T04:26:25.504Z,3.43
2023-02-27T04:29:05.959Z,3.47
2023-02-27T04:31:45.979Z,3.60
2023-02-27T04:34:50.519Z,3.38
2023-02-27T04:37:23.986Z,3.63
2023-02-27T04:39:56.027Z,3.17
2023-02-27T04:42:27.968Z,3.97
2023-02-27T04:44:57.884Z,3.77
2023-02-27T04:47:27.125Z,4.10
2023-02-27T04:49:59.347Z,4.53
2023-02-27T04:52:34.418Z,3.70
2023-02-27T04:55:17.722Z,3.88
2023-02-27T04:57:53.361Z,3.90
2023-02-27T05:00:24.043Z,3.63
2023-02-27T05:02:57.021Z,4.20
2023-02-27T05:05:29.982Z,3.73
2023-02-27T05:08:04.524Z,4.30
2023-02-27T05:10:43.191Z,3.60
2023-02-27T05:13:15.114Z,3.30
2023-02-27T05:15:49.363Z,3.80
2023-02-27T05:18:21.215Z,4.00
2023-02-27T05:20:54.289Z,3.60
2023-02-27T05:23:43.182Z,3.97
2023-02-27T05:26:47.274Z,3.70
2023-02-27T05:29:22.669Z,4.00
2023-02-27T05:31:56.823Z,3.70
2023-02-27T05:34:27.741Z,4.07
2023-02-27T05:37:01.766Z,3.43
2023-02-27T05:39:30.296Z,3.37
2023-02-27T05:42:01.938Z,3.60
2023-02-27T05:44:34.673Z,3.53
2023-02-27T05:47:07.923Z,4.33
2023-02-27T05:49:40.935Z,3.90
2023-02-27T05:52:11.949Z,4.00
2023-02-27T05:55:01.845Z,3.87
2023-02-27T05:57:39.012Z,4.03
2023-02-27T06:00:21.147Z,4.03
2023-02-27T06:02:47.662Z,3.40
2023-02-27T06:05:15.464Z,3.77
2023-02-27T06:07:41.942Z,4.00
2023-02-27T06:10:12.238Z,3.80
2023-02-27T06:12:38.644Z,3.63
2023-02-27T06:15:05.456Z,4.33
2023-02-27T06:17:31.836Z,4.67
2023-02-27T06:19:58.211Z,4.33
2023-02-27T06:22:24.581Z,4.10
2023-02-27T06:24:51.008Z,3.97
2023-02-27T06:27:17.364Z,4.27
2023-02-27T06:29:43.718Z,3.83
2023-02-27T06:32:10.198Z,4.20
2023-02-27T06:34:36.704Z,3.90
2023-02-27T06:37:04.344Z,4.37
2023-02-27T06:39:30.904Z,3.80
2023-02-27T06:41:57.278Z,4.60
2023-02-27T06:44:23.664Z,4.70
2023-02-27T06:46:50.077Z,4.40
2023-02-27T06:49:16.735Z,5.17
2023-02-27T06:51:44.998Z,4.30
2023-02-27T06:54:11.860Z,4.07
2023-02-27T06:56:38.245Z,4.33
2023-02-27T06:59:04.924Z,3.97
2023-02-27T07:01:31.567Z,4.10
2023-02-27T07:03:58.023Z,4.30
2023-02-27T07:07:32.753Z,4.00
2023-02-27T07:09:11.217Z,4.17
2023-02-27T07:11:37.588Z,4.30
2023-02-27T07:14:04.151Z,4.87
2023-02-27T07:16:30.584Z,4.73
2023-02-27T07:18:56.996Z,5.77
2023-02-27T07:21:23.538Z,4.87
2023-02-27T07:23:49.991Z,4.83
2023-02-27T07:26:16.403Z,4.53
2023-02-27T07:28:42.768Z,4.67
2023-02-27T07:31:09.174Z,4.43
2023-02-27T07:33:35.609Z,5.37
2023-02-27T07:36:02.304Z,4.30
2023-02-27T07:38:28.908Z,4.83
2023-02-27T07:40:55.333Z,5.07
2023-02-27T07:43:21.708Z,4.33
2023-02-27T07:45:50.640Z,4.80
2023-02-27T07:48:17.633Z,5.27
2023-02-27T07:50:44.035Z,4.80
2023-02-27T07:53:12.702Z,4.43
2023-02-27T07:55:39.330Z,4.28
2023-02-27T07:58:05.722Z,4.45
2023-02-27T08:00:32.099Z,5.00
2023-02-27T08:02:58.600Z,4.38
2023-02-27T08:05:24.998Z,4.50
2023-02-27T08:07:51.398Z,4.43
2023-02-27T08:10:17.838Z,4.18
2023-02-27T08:12:44.838Z,5.00
2023-02-27T08:15:11.689Z,3.60
2023-02-27T08:17:38.081Z,3.70
2023-02-27T08:20:05.096Z,3.65
2023-02-27T08:22:32.489Z,3.13
2023-02-27T08:24:58.933Z,3.38
2023-02-27T08:27:25.356Z,3.72
2023-02-27T08:29:51.746Z,3.33
2023-02-27T08:32:18.290Z,3.03
2023-02-27T08:34:44.696Z,2.67
2023-02-27T08:37:11.139Z,3.10
2023-02-27T08:39:37.480Z,2.80
2023-02-27T08:42:03.974Z,2.65
2023-02-27T08:44:30.321Z,2.50
2023-02-27T08:46:56.735Z,2.30
2023-02-27T08:49:25.122Z,2.75
2023-02-27T08:51:52.622Z,1.95
2023-02-27T08:54:19.196Z,2.30
2023-02-27T08:56:45.654Z,2.08
2023-02-27T08:59:12.043Z,1.80
2023-02-27T09:01:38.454Z,1.90
2023-02-27T09:04:05.713Z,1.77
2023-02-27T09:06:34.694Z,1.55
2023-02-27T09:09:01.237Z,1.70
2023-02-27T09:11:28.438Z,1.67
2023-02-27T09:13:56.248Z,3.05
2023-02-27T09:16:23.369Z,1.70
2023-02-27T09:18:50.421Z,2.03
2023-02-27T09:21:17.192Z,1.80
2023-02-27T09:23:43.637Z,1.48
2023-02-27T09:26:10.208Z,1.40
2023-02-27T09:28:39.947Z,1.50
2023-02-27T09:31:07.875Z,1.60
2023-02-27T09:33:37.116Z,1.77
2023-02-27T09:36:05.639Z,1.42
2023-02-27T09:38:34.474Z,1.42
2023-02-27T09:41:01.405Z,1.60
2023-02-27T09:43:45.841Z,1.60
2023-02-27T09:46:19.738Z,1.50
2023-02-27T09:48:48.488Z,1.40
2023-02-27T09:51:16.769Z,1.58
2023-02-27T09:53:49.795Z,1.35
2023-02-27T09:56:26.549Z,1.55
2023-02-27T09:59:13.714Z,1.30
2023-02-27T10:01:43.499Z,2.10
2023-02-27T10:04:51.644Z,1.40
2023-02-27T10:07:52.393Z,1.35
2023-02-27T10:10:36.026Z,1.27
2023-02-27T10:13:25.361Z,1.63
2023-02-27T10:15:55.419Z,1.30
2023-02-27T10:18:40.005Z,1.25
2023-02-27T10:21:10.907Z,1.30
2023-02-27T10:23:46.444Z,1.10
2023-02-27T10:26:31.100Z,1.25
2023-02-27T10:29:02.540Z,1.70
2023-02-27T10:31:34.712Z,1.00
2023-02-27T10:34:02.269Z,1.30
2023-02-27T10:36:33.988Z,1.08
2023-02-27T10:39:08.860Z,1.20
2023-02-27T10:41:37.712Z,1.10
2023-02-27T10:44:04.993Z,1.25
2023-02-27T10:46:35.156Z,1.10
2023-02-27T10:49:05.509Z,1.35
2023-02-27T10:51:36.241Z,1.38
2023-02-27T10:54:16.245Z,1.23
2023-02-27T10:56:45.847Z,1.48
2023-02-27T10:59:20.178Z,1.38
2023-02-27T11:01:51.583Z,1.60
2023-02-27T11:04:53.639Z,1.70
2023-02-27T11:07:32.092Z,1.65
2023-02-27T11:10:15.545Z,1.42
2023-02-27T11:12:56.594Z,1.23
2023-02-27T11:15:29.755Z,1.40
2023-02-27T11:18:22.059Z,1.40
2023-02-27T11:20:50.717Z,1.70
2023-02-27T11:23:25.100Z,1.23
2023-02-27T11:26:08.517Z,1.15
2023-02-27T11:28:34.921Z,1.08
2023-02-27T11:31:03.501Z,1.30
2023-02-27T11:33:35.920Z,1.30
2023-02-27T11:36:03.795Z,1.20
2023-02-27T11:38:32.202Z,1.15
2023-02-27T11:41:02.065Z,1.50
2023-02-27T11:43:32.817Z,1.40
2023-02-27T11:46:10.199Z,1.45
2023-02-27T11:48:50.554Z,1.08
2023-02-27T11:51:22.840Z,1.25
2023-02-27T11:54:01.168Z,1.20
2023-02-27T11:56:36.163Z,1.00
2023-02-27T11:59:22.996Z,1.00
2023-02-27T12:01:52.333Z,0.88
2023-02-27T12:04:25.663Z,1.08
2023-02-27T12:06:58.841Z,1.10
2023-02-27T12:09:41.852Z,1.02
2023-02-27T12:12:21.041Z,1.17
2023-02-27T12:14:57.275Z,0.80
2023-02-27T12:17:39.587Z,0.90
2023-02-27T12:20:29.443Z,1.00
2023-02-27T12:22:56.283Z,0.70
2023-02-27T12:25:29.754Z,1.30
2023-02-27T12:28:15.107Z,1.10
2023-02-27T12:33:55.209Z,1.33
2023-02-27T12:36:21.662Z,0.93
2023-02-27T12:38:48.050Z,1.05
2023-02-27T12:41:14.382Z,1.10
2023-02-27T12:44:25.698Z,1.00
2023-02-27T12:46:57.916Z,1.50
2023-02-27T12:49:28.629Z,1.05
2023-02-27T12:52:12.678Z,1.00
2023-02-27T12:54:51.261Z,1.17
2023-02-27T12:57:30.107Z,1.10
2023-02-27T13:00:02.234Z,1.30
2023-02-27T13:02:52.049Z,1.08
2023-02-27T13:05:36.879Z,0.80
2023-02-27T13:08:19.133Z,1.15
2023-02-27T13:10:50.893Z,1.00
2023-02-27T13:13:28.183Z,1.10
2023-02-27T13:16:00.572Z,0.90
2023-02-27T13:18:49.548Z,1.10
2023-02-27T13:21:28.797Z,0.90
2023-02-27T13:24:15.614Z,1.20
2023-02-27T13:26:53.580Z,0.90
2023-02-27T13:29:22.885Z,0.98
2023-02-27T13:32:01.357Z,1.33
2023-02-27T13:34:42.483Z,0.82
2023-02-27T13:37:09.557Z,1.25
2023-02-27T13:39:47.077Z,1.30
2023-02-27T13:42:25.935Z,1.20
2023-02-27T13:44:54.573Z,1.23
2023-02-27T13:47:30.054Z,1.02
2023-02-27T13:50:23.694Z,1.08
2023-02-27T13:52:50.698Z,1.20
2023-02-27T13:55:31.230Z,0.90
2023-02-27T13:58:00.577Z,1.48
2023-02-27T14:00:30.024Z,1.23
2023-02-27T14:03:01.826Z,1.30
2023-02-27T14:05:38.792Z,1.52
2023-02-27T14:08:08.273Z,1.25
2023-02-27T14:10:37.209Z,1.42
2023-02-27T14:13:04.351Z,1.20
2023-02-27T14:15:30.665Z,1.42
2023-02-27T14:18:11.471Z,1.10
2023-02-27T14:20:42.203Z,1.10
2023-02-27T14:23:26.915Z,1.25
2023-02-27T14:25:56.713Z,1.33
2023-02-27T14:28:25.945Z,1.20
2023-02-27T14:31:01.103Z,1.30
2023-02-27T14:36:15.813Z,0.98
2023-02-27T14:41:33.571Z,1.30
2023-02-27T14:44:00.366Z,1.20
2023-02-27T14:46:30.659Z,1.25
2023-02-27T14:49:00.108Z,1.40
2023-02-27T14:51:29.791Z,1.40
2023-02-27T14:54:17.525Z,1.25
2023-02-27T14:57:15.993Z,0.80
2023-02-27T14:59:45.522Z,1.45
2023-02-27T15:02:35.399Z,1.27
2023-02-27T15:05:01.783Z,1.35
2023-02-27T15:07:33.953Z,1.45
2023-02-27T15:10:04.611Z,2.15
2023-02-27T15:12:36.848Z,1.85
2023-02-27T15:15:05.967Z,1.55
2023-02-27T15:17:41.438Z,1.30
2023-02-27T15:20:35.261Z,1.50
2023-02-27T15:23:29.405Z,1.58
2023-02-27T15:25:59.892Z,1.80
2023-02-27T15:28:38.681Z,1.50
2023-02-27T15:31:17.641Z,1.63
2023-02-27T15:33:44.084Z,1.75
2023-02-27T15:36:22.596Z,1.20
2023-02-27T15:39:05.903Z,1.63
2023-02-27T15:41:32.879Z,1.60
2023-02-27T15:43:59.357Z,1.90
2023-02-27T15:46:26.156Z,1.50
2023-02-27T15:48:54.771Z,1.80
2023-02-27T15:51:21.225Z,1.70
2023-02-27T15:53:54.527Z,1.60
2023-02-27T15:56:41.892Z,1.85
2023-02-27T15:59:15.219Z,2.38
2023-02-27T16:01:41.834Z,2.15
2023-02-27T16:04:20.574Z,1.80
2023-02-27T16:06:52.185Z,1.38
2023-02-27T16:09:21.140Z,1.83
2023-02-27T16:11:47.579Z,1.80
2023-02-27T16:14:43.118Z,1.90
2023-02-27T16:17:52.188Z,1.70
2023-02-27T16:20:31.603Z,1.75
2023-02-27T16:23:14.560Z,1.98
2023-02-27T16:25:42.825Z,1.80
2023-02-27T16:28:14.611Z,1.50
2023-02-27T16:30:42.420Z,1.50
2023-02-27T16:33:19.255Z,1.88
2023-02-27T16:35:45.790Z,1.58
2023-02-27T16:38:12.202Z,1.92
2023-02-27T16:40:38.639Z,2.08
2023-02-27T16:43:05.131Z,1.70
2023-02-27T16:45:31.983Z,1.60
2023-02-27T16:48:00.375Z,1.60
2023-02-27T16:50:41.029Z,1.30
2023-02-27T16:53:08.069Z,1.70
2023-02-27T16:55:39.056Z,1.73
2023-02-27T16:58:06.365Z,2.00
2023-02-27T17:00:34.053Z,1.80
2023-02-27T17:03:01.091Z,1.67
2023-02-27T17:05:27.482Z,1.83
2023-02-27T17:07:53.868Z,1.80
2023-02-27T17:10:24.493Z,1.55
2023-02-27T17:12:51.456Z,1.70
2023-02-27T17:15:18.190Z,1.70
2023-02-27T17:17:45.112Z,1.80
2023-02-27T17:20:13.166Z,1.80
2023-02-27T17:22:43.009Z,1.70
2023-02-27T17:25:10.954Z,2.10
2023-02-27T17:27:37.606Z,2.13
2023-02-27T17:30:05.964Z,2.10
2023-02-27T17:32:34.451Z,1.90
2023-02-27T17:35:01.024Z,2.83
2023-02-27T17:37:27.601Z,3.60
2023-02-27T17:39:54.778Z,2.92
2023-02-27T17:42:22.763Z,4.22
2023-02-27T17:44:49.213Z,4.65
2023-02-27T17:47:15.663Z,3.55
2023-02-27T17:49:42.573Z,2.83
2023-02-27T17:52:09.203Z,3.67
2023-02-27T17:54:36.056Z,2.97
2023-02-27T17:57:04.665Z,2.45
2023-02-27T17:59:31.532Z,2.92
2023-02-27T18:01:57.948Z,3.17
2023-02-27T18:04:24.384Z,2.58
2023-02-27T18:06:51.013Z,2.80
2023-02-27T18:09:17.976Z,2.30
2023-02-27T18:11:44.411Z,2.30
2023-02-27T18:14:10.906Z,2.60
2023-02-27T18:16:37.494Z,2.33
2023-02-27T18:19:05.617Z,2.10
2023-02-27T18:21:32.874Z,2.20
2023-02-27T18:23:59.544Z,2.10
2023-02-27T18:26:31.116Z,2.60
2023-02-27T18:29:00.564Z,2.10
2023-02-27T18:31:33.732Z,2.15
2023-02-27T18:34:01.068Z,2.42
2023-02-27T18:36:29.164Z,2.28
2023-02-27T18:38:55.835Z,1.75
2023-02-27T18:41:22.296Z,2.05
2023-02-27T18:43:48.959Z,2.13
2023-02-27T18:46:15.671Z,1.90
2023-02-27T18:48:44.484Z,2.70
2023-02-27T18:51:14.476Z,2.58
2023-02-27T18:53:44.225Z,3.03
2023-02-27T18:56:11.754Z,3.63
2023-02-27T18:58:38.442Z,3.33
2023-02-27T19:01:05.474Z,3.53
2023-02-27T19:03:32.266Z,3.08
2023-02-27T19:05:58.855Z,2.97
2023-02-27T19:08:28.907Z,2.92
2023-02-27T19:10:58.785Z,3.25
2023-02-27T19:13:26.011Z,3.17
2023-02-27T19:15:53.217Z,4.15
2023-02-27T19:18:20.167Z,3.00
2023-02-27T19:20:46.550Z,2.78
2023-02-27T19:23:12.959Z,2.70
2023-02-27T19:25:39.409Z,3.03
2023-02-27T19:28:06.451Z,4.10
2023-02-27T19:30:33.014Z,4.95
2023-02-27T19:32:59.569Z,4.40
2023-02-27T19:35:26.575Z,4.72
2023-02-27T19:37:58.248Z,4.72
2023-02-27T19:40:26.250Z,4.20
2023-02-27T19:42:52.986Z,4.57
2023-02-27T19:45:20.573Z,4.82
2023-02-27T19:47:47.169Z,4.38
2023-02-27T19:50:14.017Z,4.15
2023-02-27T19:52:40.704Z,4.20
2023-02-27T19:55:08.196Z,3.50
2023-02-27T19:57:35.704Z,3.60
2023-02-27T20:00:05.729Z,4.40
2023-02-27T20:02:32.614Z,4.00
2023-02-27T20:04:59.523Z,3.30
2023-02-27T20:07:29.068Z,3.20
2023-02-27T20:09:56.447Z,3.95
2023-02-27T20:12:23.334Z,5.63
2023-02-27T20:14:50.351Z,4.80
2023-02-27T20:17:17.156Z,4.20
2023-02-27T20:19:43.973Z,2.92
2023-02-27T20:22:13.450Z,3.40
2023-02-27T20:24:40.235Z,3.40
2023-02-27T20:27:07.470Z,3.17
2023-02-27T20:29:34.126Z,3.40
2023-02-27T20:32:01.209Z,2.97
2023-02-27T20:34:28.532Z,2.70
2023-02-27T20:36:55.860Z,3.35
2023-02-27T20:39:22.562Z,3.33
2023-02-27T20:41:49.379Z,3.78
2023-02-27T20:44:15.862Z,4.07
2023-02-27T20:46:43.579Z,3.53
2023-02-27T20:49:14.357Z,3.88
2023-02-27T20:51:40.835Z,3.80
2023-02-27T20:54:10.961Z,3.42
2023-02-27T20:56:41.142Z,3.60
2023-02-27T20:59:11.913Z,3.60
2023-02-27T21:01:38.709Z,3.78
2023-02-27T21:04:05.629Z,3.53
2023-02-27T21:06:32.443Z,4.80
2023-02-27T21:09:04.468Z,4.20
2023-02-27T21:11:32.154Z,4.20
2023-02-27T21:14:04.121Z,4.32
2023-02-27T21:16:30.564Z,4.30
2023-02-27T21:18:57.177Z,3.92
2023-02-27T21:21:26.844Z,4.22
2023-02-27T21:23:54.177Z,4.30
2023-02-27T21:26:26.567Z,5.13
2023-02-27T21:28:58.284Z,5.15
2023-02-27T21:31:27.887Z,5.75
2023-02-27T21:33:54.916Z,5.30
2023-02-27T21:36:30.719Z,5.10
2023-02-27T21:39:02.882Z,4.85
2023-02-27T21:41:30.012Z,4.70
2023-02-27T21:44:01.194Z,4.95
2023-02-27T21:46:28.671Z,4.57
2023-02-27T21:48:55.080Z,4.45
2023-02-27T21:51:36.720Z,4.38
2023-02-27T21:54:05.568Z,4.55
2023-02-27T21:56:32.081Z,4.43
2023-02-27T21:59:02.101Z,4.32
2023-02-27T22:01:29.555Z,3.92
2023-02-27T22:03:57.065Z,4.10
2023-02-27T22:06:25.324Z,3.88
2023-02-27T22:08:56.035Z,4.63
2023-02-27T22:11:23.878Z,4.32
2023-02-27T22:13:50.363Z,4.20
2023-02-27T22:16:17.395Z,4.60
2023-02-27T22:18:45.042Z,4.28
2023-02-27T22:21:16.029Z,5.18
2023-02-27T22:23:43.458Z,4.35
2023-02-27T22:26:12.984Z,4.38
2023-02-27T22:28:41.266Z,4.72
2023-02-27T22:31:10.281Z,3.65
2023-02-27T22:33:37.422Z,4.18
2023-02-27T22:36:08.750Z,4.00
2023-02-27T22:38:35.532Z,4.97
2023-02-27T22:41:14.574Z,6.70
2023-02-27T22:43:42.079Z,7.15
2023-02-27T22:46:09.485Z,6.07
2023-02-27T22:48:36.142Z,6.88
2023-02-27T22:51:05.952Z,6.45
2023-02-27T22:53:39.653Z,4.53
2023-02-27T22:56:10.495Z,5.28
2023-02-27T22:58:39.017Z,5.05
2023-02-27T23:01:14.076Z,4.60
2023-02-27T23:06:10.108Z,5.25
2023-02-27T23:08:37.155Z,4.65
2023-02-27T23:11:03.926Z,5.22
2023-02-27T23:13:32.033Z,4.10
2023-02-27T23:15:59.312Z,3.97
2023-02-27T23:18:25.679Z,3.58
2023-02-27T23:20:52.290Z,3.80
2023-02-27T23:23:18.716Z,3.67
2023-02-27T23:25:45.108Z,4.05
2023-02-27T23:28:12.038Z,3.60
2023-02-27T23:30:38.443Z,3.38
2023-02-27T23:33:04.789Z,4.07
2023-02-27T23:35:31.351Z,3.30
2023-02-27T23:37:59.152Z,3.50
2023-02-27T23:40:27.015Z,3.20
2023-02-27T23:43:12.890Z,3.40
2023-02-27T23:45:39.850Z,3.47
2023-02-27T23:48:06.927Z,3.63
2023-02-27T23:50:39.233Z,3.42
2023-02-27T23:53:06.623Z,3.22
2023-02-27T23:55:35.361Z,2.85
2023-02-27T23:58:04.930Z,3.08
